createdAt,value
2022-10-17T00:01:01.220Z,43.78
2022-10-17T00:03:35.021Z,42.65
2022-10-17T00:06:07.307Z,44.80
2022-10-17T00:08:34.285Z,43.60
2022-10-17T00:11:06.073Z,44.25
2022-10-17T00:16:06.016Z,44.38
2022-10-17T00:18:35.350Z,44.13
2022-10-17T00:21:02.497Z,45.63
2022-10-17T00:23:30.522Z,42.15
2022-10-17T00:26:02.108Z,44.45
2022-10-17T00:28:32.186Z,43.67
2022-10-17T00:31:02.468Z,44.88
2022-10-17T00:33:31.081Z,44.88
2022-10-17T00:36:16.549Z,44.55
2022-10-17T00:38:45.747Z,42.80
2022-10-17T00:41:15.952Z,44.15
2022-10-17T00:44:01.654Z,46.47
2022-10-17T00:46:36.657Z,42.85
2022-10-17T00:49:12.645Z,44.73
2022-10-17T00:51:58.804Z,46.65
2022-10-17T00:54:31.721Z,44.80
2022-10-17T00:56:59.669Z,46.45
2022-10-17T00:59:28.666Z,43.92
2022-10-17T01:02:25.999Z,46.75
2022-10-17T01:04:56.541Z,46.13
2022-10-17T01:07:26.285Z,45.60
2022-10-17T01:09:53.452Z,44.45
2022-10-17T01:12:23.333Z,45.83
2022-10-17T01:14:58.677Z,45.42
2022-10-17T01:17:52.565Z,47.95
2022-10-17T01:21:00.155Z,44.95
2022-10-17T01:23:41.292Z,48.22
2022-10-17T01:26:25.538Z,50.72
2022-10-17T01:29:17.104Z,47.25
2022-10-17T01:32:00.476Z,47.05
2022-10-17T01:34:37.558Z,46.45
2022-10-17T01:37:32.861Z,47.85
2022-10-17T01:40:12.212Z,48.88
2022-10-17T01:42:48.762Z,50.25
2022-10-17T01:45:34.545Z,49.72
2022-10-17T01:48:09.068Z,46.75
2022-10-17T01:50:41.896Z,46.60
2022-10-17T01:53:14.781Z,46.25
2022-10-17T01:55:49.690Z,48.25
2022-10-17T01:58:31.670Z,47.75
2022-10-17T02:01:03.006Z,48.20
2022-10-17T02:03:35.434Z,49.65
2022-10-17T02:06:06.678Z,48.28
2022-10-17T02:08:44.694Z,47.63
2022-10-17T02:11:23.813Z,48.15
2022-10-17T02:14:14.826Z,48.97
2022-10-17T02:16:53.229Z,48.60
2022-10-17T02:19:50.668Z,49.45
2022-10-17T02:22:58.749Z,48.80
2022-10-17T02:25:31.816Z,49.63
2022-10-17T02:28:08.284Z,50.88
2022-10-17T02:30:53.341Z,49.10
2022-10-17T02:33:49.998Z,48.93
2022-10-17T02:36:26.544Z,47.85
2022-10-17T02:38:55.232Z,47.37
2022-10-17T02:41:24.419Z,45.95
2022-10-17T02:43:58.804Z,47.80
2022-10-17T02:46:30.350Z,47.42
2022-10-17T02:49:05.859Z,44.63
2022-10-17T02:51:37.341Z,44.50
2022-10-17T02:54:29.162Z,43.75
2022-10-17T02:57:02.936Z,43.65
2022-10-17T03:02:06.295Z,42.22
2022-10-17T03:04:34.580Z,41.30
2022-10-17T03:07:03.844Z,40.55
2022-10-17T03:09:30.935Z,40.85
2022-10-17T03:11:58.083Z,39.13
2022-10-17T03:14:25.857Z,42.10
2022-10-17T03:16:53.010Z,41.83
2022-10-17T03:19:20.668Z,39.50
2022-10-17T03:21:48.319Z,38.90
2022-10-17T03:24:15.594Z,38.10
2022-10-17T03:26:42.712Z,38.55
2022-10-17T03:29:12.274Z,40.75
2022-10-17T03:31:39.489Z,38.47
2022-10-17T03:34:07.927Z,40.35
2022-10-17T03:36:34.982Z,39.22
2022-10-17T03:39:02.441Z,40.15
2022-10-17T03:41:29.756Z,38.25
2022-10-17T03:43:56.836Z,39.72
2022-10-17T03:46:24.477Z,38.25
2022-10-17T03:48:52.180Z,39.50
2022-10-17T03:51:20.534Z,38.70
2022-10-17T03:53:52.634Z,39.80
2022-10-17T03:56:24.459Z,39.03
2022-10-17T03:58:59.700Z,41.33
2022-10-17T04:01:28.088Z,42.45
2022-10-17T04:03:57.591Z,38.72
2022-10-17T04:06:27.614Z,41.22
2022-10-17T04:08:57.048Z,40.75
2022-10-17T04:11:59.081Z,41.10
2022-10-17T04:14:26.454Z,42.05
2022-10-17T04:16:54.746Z,41.97
2022-10-17T04:19:22.288Z,42.63
2022-10-17T04:21:50.148Z,42.42
2022-10-17T04:24:18.021Z,42.22
2022-10-17T04:26:58.548Z,40.83
2022-10-17T04:29:29.973Z,41.70
2022-10-17T04:32:15.207Z,39.28
2022-10-17T04:34:49.358Z,38.13
2022-10-17T04:37:17.297Z,38.88
2022-10-17T04:39:46.291Z,40.30
2022-10-17T04:42:13.238Z,37.03
2022-10-17T04:44:40.940Z,38.15
2022-10-17T04:47:08.632Z,37.28
2022-10-17T04:49:36.007Z,37.38
2022-10-17T04:52:09.260Z,35.00
2022-10-17T04:54:44.429Z,36.10
2022-10-17T04:57:14.309Z,35.20
2022-10-17T04:59:48.611Z,34.00
2022-10-17T05:02:35.868Z,32.95
2022-10-17T05:05:04.321Z,33.20
2022-10-17T05:07:31.197Z,33.40
2022-10-17T05:10:10.915Z,32.58
2022-10-17T05:12:39.801Z,30.95
2022-10-17T05:15:07.981Z,31.85
2022-10-17T05:17:35.171Z,31.40
2022-10-17T05:20:02.702Z,32.42
2022-10-17T05:22:31.983Z,31.63
2022-10-17T05:24:59.976Z,29.92
2022-10-17T05:27:27.025Z,30.92
2022-10-17T05:29:54.115Z,30.60
2022-10-17T05:32:27.354Z,30.15
2022-10-17T05:34:57.445Z,29.42
2022-10-17T05:37:25.787Z,30.23
2022-10-17T05:39:55.712Z,30.23
2022-10-17T05:42:23.182Z,31.00
2022-10-17T05:44:50.563Z,30.95
2022-10-17T05:47:19.872Z,28.75
2022-10-17T05:49:51.548Z,30.33
2022-10-17T05:52:24.222Z,30.45
2022-10-17T05:55:12.624Z,28.42
2022-10-17T05:57:40.152Z,29.20
2022-10-17T06:00:12.762Z,29.08
2022-10-17T06:02:48.935Z,29.65
2022-10-17T06:05:18.633Z,28.02
2022-10-17T06:07:47.257Z,28.10
2022-10-17T06:10:16.571Z,26.67
2022-10-17T06:12:44.817Z,26.80
2022-10-17T06:15:12.518Z,24.65
2022-10-17T06:17:42.945Z,26.40
2022-10-17T06:20:10.408Z,24.50
2022-10-17T06:22:37.841Z,22.75
2022-10-17T06:25:10.363Z,22.23
2022-10-17T06:27:37.357Z,20.13
2022-10-17T06:30:08.016Z,19.80
2022-10-17T06:32:34.930Z,19.92
2022-10-17T06:35:02.057Z,20.67
2022-10-17T06:37:36.541Z,17.80
2022-10-17T06:40:09.194Z,16.98
2022-10-17T06:42:41.632Z,15.40
2022-10-17T06:45:24.510Z,15.13
2022-10-17T06:48:12.845Z,13.73
2022-10-17T06:50:44.406Z,12.45
2022-10-17T06:53:15.752Z,12.30
2022-10-17T06:58:59.080Z,11.82
2022-10-17T07:01:32.125Z,12.05
2022-10-17T07:04:00.796Z,12.30
2022-10-17T07:06:29.586Z,12.57
2022-10-17T07:09:01.052Z,12.65
2022-10-17T07:11:28.351Z,12.43
2022-10-17T07:13:55.303Z,12.90
2022-10-17T07:16:22.759Z,12.73
2022-10-17T07:19:01.107Z,12.90
2022-10-17T07:21:36.558Z,12.82
2022-10-17T07:24:09.267Z,12.35
2022-10-17T07:26:36.946Z,12.50
2022-10-17T07:29:06.466Z,12.98
2022-10-17T07:31:54.045Z,14.25
2022-10-17T07:34:21.175Z,12.80
2022-10-17T07:36:49.694Z,12.93
2022-10-17T07:39:16.854Z,14.40
2022-10-17T07:41:45.809Z,13.13
2022-10-17T07:44:15.483Z,13.57
2022-10-17T07:46:47.989Z,15.63
2022-10-17T07:49:15.732Z,14.52
2022-10-17T07:54:17.439Z,14.97
2022-10-17T07:56:50.443Z,16.38
2022-10-17T07:59:20.569Z,16.02
2022-10-17T08:01:50.197Z,15.52
2022-10-17T08:04:17.550Z,15.90
2022-10-17T08:06:44.776Z,16.15
2022-10-17T08:09:11.674Z,16.75
2022-10-17T08:11:43.995Z,16.67
2022-10-17T08:14:14.158Z,17.25
2022-10-17T08:16:43.778Z,17.40
2022-10-17T08:19:13.423Z,17.73
2022-10-17T08:21:41.448Z,18.23
2022-10-17T08:24:08.808Z,18.98
2022-10-17T08:26:42.337Z,18.88
2022-10-17T08:29:16.129Z,19.55
2022-10-17T08:31:47.846Z,19.30
2022-10-17T08:34:18.136Z,18.45
2022-10-17T08:36:45.341Z,18.92
2022-10-17T08:39:12.336Z,17.85
2022-10-17T08:41:54.497Z,18.38
2022-10-17T08:44:38.384Z,19.95
2022-10-17T08:47:11.931Z,19.65
2022-10-17T08:50:01.250Z,19.40
2022-10-17T08:52:47.586Z,19.70
2022-10-17T08:55:40.083Z,20.55
2022-10-17T08:58:14.674Z,18.77
2022-10-17T09:00:50.554Z,18.75
2022-10-17T09:03:32.673Z,19.25
2022-10-17T09:06:19.733Z,19.20
2022-10-17T09:09:08.166Z,19.02
2022-10-17T09:12:04.152Z,19.15
2022-10-17T09:15:03.997Z,18.17
2022-10-17T09:17:41.691Z,19.10
2022-10-17T09:20:15.097Z,19.95
2022-10-17T09:22:52.315Z,21.52
2022-10-17T09:25:21.093Z,19.95
2022-10-17T09:27:52.542Z,21.42
2022-10-17T09:30:44.148Z,20.17
2022-10-17T09:33:23.363Z,20.98
2022-10-17T09:36:05.173Z,21.35
2022-10-17T09:38:40.516Z,20.58
2022-10-17T09:41:42.795Z,20.92
2022-10-17T09:44:20.379Z,22.30
2022-10-17T09:47:11.034Z,20.23
2022-10-17T09:49:45.658Z,20.95
2022-10-17T09:52:18.729Z,19.88
2022-10-17T09:54:48.162Z,19.25
2022-10-17T09:57:19.338Z,19.75
2022-10-17T09:59:55.809Z,19.90
2022-10-17T10:02:24.951Z,21.45
2022-10-17T10:05:09.791Z,20.83
2022-10-17T10:07:39.758Z,20.38
2022-10-17T10:10:23.467Z,19.70
2022-10-17T10:13:06.780Z,19.55
2022-10-17T10:15:37.927Z,19.08
2022-10-17T10:18:27.850Z,20.00
2022-10-17T10:21:26.035Z,19.70
2022-10-17T10:24:15.585Z,18.75
2022-10-17T10:26:54.438Z,17.55
2022-10-17T10:29:25.226Z,19.17
2022-10-17T10:31:53.504Z,17.77
2022-10-17T10:34:28.982Z,19.27
2022-10-17T10:39:28.584Z,17.23
2022-10-17T10:41:55.947Z,16.88
2022-10-17T10:44:26.516Z,17.13
2022-10-17T10:47:08.201Z,17.42
2022-10-17T10:49:42.734Z,17.92
2022-10-17T10:52:23.906Z,16.48
2022-10-17T10:55:16.306Z,17.48
2022-10-17T10:57:47.147Z,16.27
2022-10-17T11:00:23.291Z,16.90
2022-10-17T11:03:25.116Z,16.00
2022-10-17T11:06:02.533Z,16.17
2022-10-17T11:08:50.464Z,16.60
2022-10-17T11:11:33.684Z,15.70
2022-10-17T11:14:25.660Z,15.63
2022-10-17T11:16:59.764Z,15.70
2022-10-17T11:19:44.678Z,16.02
2022-10-17T11:22:16.424Z,16.23
2022-10-17T11:24:57.004Z,16.13
2022-10-17T11:27:25.184Z,15.15
2022-10-17T11:29:52.205Z,16.05
2022-10-17T11:32:44.133Z,15.40
2022-10-17T11:35:29.061Z,16.40
2022-10-17T11:38:08.161Z,14.93
2022-10-17T11:40:39.476Z,15.25
2022-10-17T11:43:15.473Z,14.90
2022-10-17T11:45:52.846Z,13.98
2022-10-17T11:49:01.892Z,14.65
2022-10-17T11:54:38.158Z,14.80
2022-10-17T11:57:14.913Z,15.00
2022-10-17T12:00:00.787Z,14.63
2022-10-17T12:02:38.083Z,15.23
2022-10-17T12:05:22.328Z,13.40
2022-10-17T12:08:03.031Z,14.55
2022-10-17T12:10:42.380Z,14.52
2022-10-17T12:13:29.421Z,14.23
2022-10-17T12:15:58.673Z,14.57
2022-10-17T12:18:29.511Z,14.68
2022-10-17T12:20:58.723Z,13.43
2022-10-17T12:23:30.572Z,13.32
2022-10-17T12:26:04.863Z,14.38
2022-10-17T12:28:39.293Z,13.32
2022-10-17T12:31:15.747Z,14.05
2022-10-17T12:33:48.449Z,12.95
2022-10-17T12:36:18.764Z,12.60
2022-10-17T12:38:49.924Z,12.50
2022-10-17T12:41:40.455Z,13.80
2022-10-17T12:44:13.714Z,12.70
2022-10-17T12:46:45.833Z,13.27
2022-10-17T12:49:42.386Z,13.10
2022-10-17T12:52:26.772Z,12.18
2022-10-17T12:55:12.973Z,12.45
2022-10-17T12:58:04.031Z,12.02
2022-10-17T13:01:11.783Z,11.63
2022-10-17T13:03:53.416Z,12.20
2022-10-17T13:06:24.894Z,11.35
2022-10-17T13:09:03.916Z,12.00
2022-10-17T13:11:35.528Z,11.68
2022-10-17T13:14:09.135Z,11.15
2022-10-17T13:16:43.761Z,11.70
2022-10-17T13:19:16.687Z,11.48
2022-10-17T13:21:51.781Z,10.70
2022-10-17T13:24:23.236Z,11.60
2022-10-17T13:26:50.476Z,11.20
2022-10-17T13:29:18.178Z,11.45
2022-10-17T13:31:45.285Z,11.10
2022-10-17T13:34:24.897Z,11.07
2022-10-17T13:36:58.197Z,10.48
2022-10-17T13:39:44.839Z,11.18
2022-10-17T13:42:27.702Z,11.13
2022-10-17T13:44:55.958Z,10.98
2022-10-17T13:47:25.594Z,11.15
2022-10-17T13:49:55.513Z,11.13
2022-10-17T13:52:27.430Z,9.93
2022-10-17T13:54:56.589Z,11.02
2022-10-17T13:57:27.469Z,11.20
2022-10-17T13:59:59.537Z,10.80
2022-10-17T14:02:29.071Z,10.52
2022-10-17T14:05:17.134Z,10.95
2022-10-17T14:08:09.910Z,11.38
2022-10-17T14:10:35.468Z,11.85
2022-10-17T14:13:10.294Z,12.07
2022-10-17T14:15:37.707Z,11.30
2022-10-17T14:18:08.353Z,11.13
2022-10-17T14:23:41.962Z,10.65
2022-10-17T14:26:37.050Z,11.05
2022-10-17T14:29:07.353Z,10.52
2022-10-17T14:31:37.094Z,10.38
2022-10-17T14:34:07.223Z,10.27
2022-10-17T14:36:42.314Z,11.00
2022-10-17T14:39:21.109Z,10.80
2022-10-17T14:41:49.671Z,10.18
2022-10-17T14:44:27.088Z,9.98
2022-10-17T14:47:06.016Z,9.80
2022-10-17T14:49:42.699Z,10.23
2022-10-17T14:52:14.897Z,9.10
2022-10-17T14:54:46.788Z,9.93
2022-10-17T14:57:23.397Z,10.73
2022-10-17T14:59:54.204Z,8.93
2022-10-17T15:02:25.993Z,8.82
2022-10-17T15:04:53.468Z,8.02
2022-10-17T15:07:21.434Z,9.18
2022-10-17T15:09:52.625Z,8.13
2022-10-17T15:12:23.326Z,8.20
2022-10-17T15:14:51.674Z,8.15
2022-10-17T15:17:25.716Z,8.00
2022-10-17T15:19:52.812Z,8.27
2022-10-17T15:22:19.989Z,7.93
2022-10-17T15:24:47.065Z,7.35
2022-10-17T15:27:19.908Z,7.85
2022-10-17T15:29:47.742Z,7.85
2022-10-17T15:32:17.141Z,8.60
2022-10-17T15:34:44.569Z,6.80
2022-10-17T15:37:22.144Z,7.28
2022-10-17T15:39:54.905Z,7.95
2022-10-17T15:42:28.053Z,8.63
2022-10-17T15:44:58.284Z,7.78
2022-10-17T15:47:29.679Z,6.53
2022-10-17T15:49:57.245Z,6.93
2022-10-17T15:52:24.903Z,6.88
2022-10-17T15:54:52.389Z,6.72
2022-10-17T15:57:22.761Z,6.50
2022-10-17T15:59:51.674Z,6.85
2022-10-17T16:02:21.081Z,6.63
2022-10-17T16:04:49.471Z,6.50
2022-10-17T16:07:17.544Z,6.53
2022-10-17T16:09:45.598Z,6.90
2022-10-17T16:12:30.229Z,6.57
2022-10-17T16:14:57.436Z,6.30
2022-10-17T16:17:24.606Z,6.40
2022-10-17T16:19:51.561Z,6.32
2022-10-17T16:22:32.424Z,6.22
2022-10-17T16:25:09.549Z,6.18
2022-10-17T16:27:39.861Z,6.35
2022-10-17T16:30:08.347Z,6.10
2022-10-17T16:32:35.556Z,6.32
2022-10-17T16:35:04.836Z,6.07
2022-10-17T16:37:32.436Z,6.40
2022-10-17T16:40:00.684Z,6.07
2022-10-17T16:42:28.301Z,5.72
2022-10-17T16:44:55.439Z,6.10
2022-10-17T16:47:22.673Z,6.22
2022-10-17T16:49:50.589Z,5.50
2022-10-17T16:52:17.683Z,5.90
2022-10-17T16:54:44.633Z,5.82
2022-10-17T16:57:11.745Z,6.32
2022-10-17T16:59:39.659Z,6.65
2022-10-17T17:02:07.664Z,5.70
2022-10-17T17:04:35.317Z,6.05
2022-10-17T17:07:03.114Z,5.30
2022-10-17T17:09:30.270Z,5.35
2022-10-17T17:11:57.915Z,5.78
2022-10-17T17:14:26.610Z,5.32
2022-10-17T17:16:54.072Z,5.50
2022-10-17T17:19:27.050Z,5.70
2022-10-17T17:21:57.428Z,5.32
2022-10-17T17:24:26.363Z,5.82
2022-10-17T17:26:56.014Z,5.82
2022-10-17T17:29:24.722Z,5.80
2022-10-17T17:31:53.336Z,5.60
2022-10-17T17:34:20.761Z,5.32
2022-10-17T17:36:49.005Z,5.30
2022-10-17T17:39:16.956Z,5.72
2022-10-17T17:41:47.728Z,5.72
2022-10-17T17:44:16.876Z,5.93
2022-10-17T17:46:48.427Z,5.82
2022-10-17T17:49:16.213Z,5.90
2022-10-17T17:51:46.844Z,5.75
2022-10-17T17:54:15.670Z,5.18
2022-10-17T17:56:44.152Z,5.13
2022-10-17T17:59:15.255Z,5.50
2022-10-17T18:01:43.961Z,5.43
2022-10-17T18:04:12.356Z,5.15
2022-10-17T18:06:43.655Z,5.32
2022-10-17T18:09:11.452Z,5.75
2022-10-17T18:11:39.194Z,5.28
2022-10-17T18:14:13.234Z,5.70
2022-10-17T18:16:44.576Z,5.63
2022-10-17T18:19:12.782Z,5.40
2022-10-17T18:21:41.605Z,6.22
2022-10-17T18:24:11.962Z,5.72
2022-10-17T18:26:40.639Z,5.72
2022-10-17T18:29:09.021Z,5.45
2022-10-17T18:31:41.608Z,6.18
2022-10-17T18:34:11.702Z,6.00
2022-10-17T18:36:42.296Z,6.03
2022-10-17T18:39:09.913Z,6.32
2022-10-17T18:41:38.357Z,6.15
2022-10-17T18:44:07.787Z,6.15
2022-10-17T18:46:40.810Z,6.28
2022-10-17T18:49:10.656Z,6.00
2022-10-17T18:51:39.657Z,6.82
2022-10-17T18:54:13.009Z,6.10
2022-10-17T18:56:42.761Z,6.47
2022-10-17T18:59:11.230Z,7.20
2022-10-17T19:01:40.156Z,6.65
2022-10-17T19:04:08.541Z,6.43
2022-10-17T19:06:37.781Z,7.28
2022-10-17T19:09:08.078Z,7.15
2022-10-17T19:11:36.805Z,7.95
2022-10-17T19:14:14.253Z,7.10
2022-10-17T19:16:45.291Z,6.90
2022-10-17T19:19:14.778Z,7.28
2022-10-17T19:21:43.645Z,7.18
2022-10-17T19:24:16.896Z,6.18
2022-10-17T19:26:46.437Z,6.80
2022-10-17T19:29:15.405Z,6.72
2022-10-17T19:31:43.765Z,7.60
2022-10-17T19:34:14.826Z,7.05
2022-10-17T19:36:43.732Z,7.47
2022-10-17T19:39:20.326Z,7.38
2022-10-17T19:41:48.546Z,6.85
2022-10-17T19:44:16.935Z,7.13
2022-10-17T19:46:47.162Z,6.80
2022-10-17T19:49:15.873Z,7.00
2022-10-17T19:51:44.569Z,6.32
2022-10-17T19:54:15.465Z,6.85
2022-10-17T19:56:49.067Z,7.13
2022-10-17T19:59:20.104Z,6.60
2022-10-17T20:01:48.263Z,6.60
2022-10-17T20:04:15.898Z,6.88
2022-10-17T20:06:43.769Z,6.80
2022-10-17T20:09:17.047Z,5.90
2022-10-17T20:11:50.155Z,6.82
2022-10-17T20:14:19.590Z,7.20
2022-10-17T20:16:51.246Z,6.22
2022-10-17T20:19:19.826Z,7.22
2022-10-17T20:21:47.784Z,6.38
2022-10-17T20:24:16.803Z,6.72
2022-10-17T20:26:45.680Z,6.45
2022-10-17T20:29:19.916Z,6.82
2022-10-17T20:31:50.341Z,7.03
2022-10-17T20:34:19.075Z,6.25
2022-10-17T20:36:47.503Z,6.43
2022-10-17T20:39:16.148Z,7.10
2022-10-17T20:41:44.682Z,6.50
2022-10-17T20:44:14.601Z,6.72
2022-10-17T20:46:48.678Z,6.20
2022-10-17T20:49:20.682Z,6.93
2022-10-17T20:51:47.795Z,6.68
2022-10-17T20:54:14.794Z,6.43
2022-10-17T20:56:42.104Z,6.60
2022-10-17T20:59:14.424Z,7.57
2022-10-17T21:01:42.247Z,6.75
2022-10-17T21:04:43.966Z,7.28
2022-10-17T21:06:56.693Z,6.93
2022-10-17T21:09:24.149Z,7.68
2022-10-17T21:11:55.059Z,7.05
2022-10-17T21:14:23.503Z,7.30
2022-10-17T21:16:52.377Z,7.40
2022-10-17T21:19:22.073Z,7.28
2022-10-17T21:21:49.835Z,7.88
2022-10-17T21:24:19.462Z,8.13
2022-10-17T21:26:50.086Z,7.93
2022-10-17T21:29:16.992Z,7.72
2022-10-17T21:31:45.340Z,8.18
2022-10-17T21:34:18.534Z,7.45
2022-10-17T21:36:48.290Z,9.05
2022-10-17T21:39:17.386Z,7.88
2022-10-17T21:41:45.500Z,8.93
2022-10-17T21:44:15.831Z,9.90
2022-10-17T21:46:43.295Z,9.50
2022-10-17T21:49:19.466Z,8.98
2022-10-17T21:51:50.447Z,10.32
2022-10-17T21:54:19.669Z,10.07
2022-10-17T21:56:46.966Z,10.95
2022-10-17T21:59:13.962Z,10.02
2022-10-17T22:01:45.776Z,10.10
2022-10-17T22:04:16.259Z,10.68
2022-10-17T22:06:45.591Z,11.60
2022-10-17T22:09:16.368Z,12.38
2022-10-17T22:11:49.036Z,13.38
2022-10-17T22:14:19.986Z,12.65
2022-10-17T22:16:48.214Z,11.60
2022-10-17T22:19:21.200Z,13.20
2022-10-17T22:21:49.131Z,12.05
2022-10-17T22:24:18.563Z,12.25
2022-10-17T22:26:46.621Z,11.55
2022-10-17T22:29:14.166Z,11.50
2022-10-17T22:31:41.668Z,11.68
2022-10-17T22:34:11.092Z,11.02
2022-10-17T22:36:38.249Z,10.65
2022-10-17T22:39:05.205Z,11.00
2022-10-17T22:41:32.869Z,11.00
2022-10-17T22:44:00.230Z,11.68
2022-10-17T22:46:30.095Z,11.65
2022-10-17T22:48:59.401Z,11.57
2022-10-17T22:51:26.924Z,11.10
2022-10-17T22:53:56.724Z,11.40
2022-10-17T22:56:23.890Z,11.18
2022-10-17T22:58:51.814Z,10.80
2022-10-17T23:01:22.278Z,11.32
2022-10-17T23:03:50.474Z,10.43
2022-10-17T23:06:18.430Z,10.80
2022-10-17T23:08:45.956Z,11.07
2022-10-17T23:11:13.063Z,10.65
2022-10-17T23:13:41.045Z,11.30
2022-10-17T23:16:09.294Z,10.30
2022-10-17T23:18:38.063Z,10.20
2022-10-17T23:21:05.876Z,10.63
2022-10-17T23:23:32.802Z,9.75
2022-10-17T23:26:10.378Z,10.63
2022-10-17T23:28:38.371Z,10.75
2022-10-17T23:31:17.379Z,9.50
2022-10-17T23:33:46.012Z,10.23
2022-10-17T23:36:15.169Z,9.93
2022-10-17T23:38:45.545Z,9.77
2022-10-17T23:41:13.246Z,10.02
2022-10-17T23:43:44.122Z,10.05
2022-10-17T23:46:12.182Z,10.73
2022-10-17T23:48:40.167Z,10.02
2022-10-17T23:51:10.895Z,10.13
2022-10-17T23:53:38.693Z,10.57
2022-10-17T23:56:07.818Z,10.00
2022-10-17T23:58:37.846Z,10.13
